createdAt,value
2023-01-17T17:56:50.317Z,2.90
2023-01-17T18:01:30.517Z,3.00
2023-01-17T18:06:09.177Z,2.93
2023-01-17T18:10:26.911Z,2.90
2023-01-17T18:14:55.806Z,2.85
2023-01-17T18:19:20.903Z,2.79
2023-01-17T18:23:24.757Z,2.51
2023-01-17T18:27:28.062Z,2.31
2023-01-17T18:31:31.708Z,2.18
2023-01-17T18:35:40.059Z,2.04
2023-01-17T18:44:36.153Z,1.63
2023-01-17T18:53:04.319Z,1.45
2023-01-17T18:57:07.421Z,1.43
2023-01-17T19:01:17.050Z,1.54
2023-01-17T19:05:21.681Z,1.52
2023-01-17T19:09:24.467Z,1.37
2023-01-17T19:13:27.412Z,1.33
2023-01-17T19:17:30.330Z,1.33
2023-01-17T19:21:33.452Z,1.38
2023-01-17T19:25:37.210Z,1.33
2023-01-17T19:29:40.143Z,1.36
2023-01-17T19:33:45.240Z,1.36
2023-01-17T19:37:51.334Z,1.43
2023-01-17T19:41:54.233Z,1.51
2023-01-17T19:46:00.848Z,1.52
2023-01-17T19:50:04.788Z,1.55
2023-01-17T19:54:08.582Z,1.59
2023-01-17T19:58:13.191Z,1.60
2023-01-17T20:02:17.047Z,1.67
2023-01-17T20:06:23.131Z,1.64
2023-01-17T20:10:26.356Z,1.51
2023-01-17T20:14:29.647Z,1.57
2023-01-17T20:18:34.315Z,1.67
2023-01-17T20:22:37.167Z,1.73
2023-01-17T20:26:41.318Z,1.60
2023-01-17T20:30:45.657Z,1.59
2023-01-17T20:34:48.622Z,1.65
2023-01-17T20:38:51.652Z,1.71
2023-01-17T20:42:54.687Z,1.77
2023-01-17T20:46:57.670Z,1.80
2023-01-17T20:51:07.771Z,1.62
2023-01-17T20:55:10.664Z,1.61
2023-01-17T20:59:17.217Z,1.71
2023-01-17T21:03:20.209Z,1.81
2023-01-17T21:07:23.032Z,1.91
2023-01-17T21:11:27.758Z,1.96
2023-01-17T21:15:30.581Z,1.87
2023-01-17T21:19:33.552Z,1.78
2023-01-17T21:23:37.476Z,1.75
2023-01-17T21:27:40.359Z,1.75
2023-01-17T21:31:43.652Z,1.79
2023-01-17T21:35:46.873Z,1.80
2023-01-17T21:39:54.751Z,1.77
2023-01-17T21:44:01.151Z,1.71
2023-01-17T21:48:04.560Z,1.63
2023-01-17T21:52:09.115Z,1.63
2023-01-17T21:56:32.308Z,1.67
2023-01-17T22:00:35.291Z,1.71
2023-01-17T22:04:38.174Z,1.70
2023-01-17T22:08:41.347Z,1.68
2023-01-17T22:12:44.103Z,1.60
2023-01-17T22:16:47.038Z,1.49
2023-01-17T22:20:49.969Z,1.47
2023-01-17T22:24:53.110Z,1.41
2023-01-17T22:28:59.313Z,1.36
2023-01-17T22:33:02.292Z,1.20
2023-01-17T22:37:10.009Z,1.11
2023-01-17T22:41:20.132Z,1.12
2023-01-17T22:45:24.309Z,1.21
2023-01-17T22:49:27.236Z,1.30
2023-01-17T22:53:30.962Z,1.38
2023-01-17T22:57:34.076Z,1.40
2023-01-17T23:01:39.553Z,1.31
2023-01-17T23:05:46.749Z,1.36
2023-01-17T23:09:49.563Z,1.41
2023-01-17T23:13:53.576Z,1.45
2023-01-17T23:18:15.140Z,1.40
2023-01-17T23:22:23.665Z,1.42
2023-01-17T23:26:26.412Z,1.40
2023-01-17T23:30:35.781Z,1.40
2023-01-17T23:34:38.604Z,1.42
2023-01-17T23:38:44.179Z,1.45
2023-01-17T23:43:05.703Z,1.53
2023-01-17T23:47:08.609Z,1.64
2023-01-17T23:51:11.461Z,1.71
2023-01-17T23:55:14.487Z,1.81
2023-01-17T23:59:17.382Z,1.90
